Terminal Aerodrome Forecast
Issued by NWS Charleston, WV

Home | Current Version | Previous Version | Text Only | Print | Product List | Glossary On
Versions: 1 2 3 4 5 6 7 8 9 10 11 12 13 14 15 16 17 18 19
000
FTUS41 KRLX 281700 RRA
TAFPKB
TAF
KPKB 281745Z 2818/0118 00000KT P6SM BKN080
     FM010800 00000KT P6SM -SN OVC025
     FM010900 00000KT 6SM -SN BR OVC015
     FM011100 17003KT 4SM -SN BR OVC015
     FM011400 17004KT 6SM -RASN OVC010
     FM011600 17004KT 6SM -RA BR OVC008=

USA.gov is the U.S. government's official web portal to all federal, state and local government web resources and services.